Terminal Aerodrome Forecast
Issued by NWS

Home | Current Version | Previous Version | Text Only | Print | Product List | Glossary On
Versions: 1 2 3 4 5 6 7 8 9 10 11 12 13 14 15 16 17 18 19 20 21 22 23 24 25 26 27 28 29 30 31 32 33 34 35 36 37
000
FTUS44 KHGX 261943 AAA
TAFSGR
TAF AMD
KSGR 261943Z 2620/2718 09007KT P6SM VCTS BKN040CB
      TEMPO 2620/2622 VRB20KT 3SM TSRA BR SCT025CB BKN035
     FM270000 11007KT P6SM BKN250
     FM271500 06006KT P6SM FEW025 BKN250=

USA.gov is the U.S. government's official web portal to all federal, state and local government web resources and services.